createdAt,value
2022-12-08T00:00:19.627Z,100516.41
2022-12-08T00:03:23.875Z,100517.94
2022-12-08T00:06:46.164Z,100515.38
2022-12-08T00:09:51.761Z,100513.09
2022-12-08T00:12:54.454Z,100517.47
2022-12-08T00:16:02.558Z,100510.59
2022-12-08T00:19:06.516Z,100509.19
2022-12-08T00:22:10.855Z,100504.00
2022-12-08T00:25:16.459Z,100505.03
2022-12-08T00:28:19.464Z,100494.25
2022-12-08T00:31:23.456Z,100497.78
2022-12-08T00:34:26.310Z,100484.91
2022-12-08T00:37:30.282Z,100483.66
2022-12-08T00:40:35.649Z,100486.16
2022-12-08T00:43:39.889Z,100482.41
2022-12-08T00:46:44.398Z,100482.19
2022-12-08T00:49:47.133Z,100479.03
2022-12-08T00:52:51.107Z,100478.66
2022-12-08T00:55:55.167Z,100480.56
2022-12-08T00:58:59.252Z,100474.09
2022-12-08T01:02:01.947Z,100469.75
2022-12-08T01:05:06.160Z,100477.88
2022-12-08T01:08:10.250Z,100472.69
2022-12-08T01:11:18.433Z,100476.63
2022-12-08T01:14:22.386Z,100472.69
2022-12-08T01:17:25.121Z,100484.13
2022-12-08T01:20:29.161Z,100476.00
2022-12-08T01:23:33.287Z,100471.88
2022-12-08T01:26:38.624Z,100462.06
2022-12-08T01:29:41.333Z,100463.94
2022-12-08T01:32:45.284Z,100463.53
2022-12-08T01:35:49.224Z,100461.69
2022-12-08T01:38:52.655Z,100449.59
2022-12-08T01:41:58.018Z,100448.13
2022-12-08T01:45:03.113Z,100439.41
2022-12-08T01:48:11.321Z,100439.81
2022-12-08T01:51:14.769Z,100437.09
2022-12-08T01:54:19.529Z,100428.38
2022-12-08T01:57:27.729Z,100429.22
2022-12-08T02:00:30.460Z,100425.47
2022-12-08T02:03:40.642Z,100416.53
2022-12-08T02:06:46.491Z,100411.31
2022-12-08T02:09:50.543Z,100408.19
2022-12-08T02:12:58.511Z,100405.69
2022-12-08T02:16:08.803Z,100411.09
2022-12-08T02:19:44.908Z,100405.25
2022-12-08T02:22:55.684Z,100398.84
2022-12-08T02:26:30.810Z,100404.84
2022-12-08T02:29:55.132Z,100405.47
2022-12-08T02:33:38.024Z,100405.06
2022-12-08T02:40:21.783Z,100393.81
2022-12-08T02:43:32.053Z,100392.59
2022-12-08T02:46:40.495Z,100375.09
2022-12-08T02:49:43.385Z,100379.69
2022-12-08T02:52:50.199Z,100372.38
2022-12-08T02:56:04.214Z,100369.47
2022-12-08T02:59:25.351Z,100365.31
2022-12-08T03:02:49.682Z,100353.66
2022-12-08T03:06:06.744Z,100362.38
2022-12-08T03:09:19.847Z,100353.41
2022-12-08T03:12:30.027Z,100348.22
2022-12-08T03:15:35.091Z,100348.88
2022-12-08T03:18:44.157Z,100343.25
2022-12-08T03:21:51.239Z,100348.03
2022-12-08T03:28:19.189Z,100343.88
2022-12-08T03:31:26.062Z,100337.84
2022-12-08T03:34:32.147Z,100329.94
2022-12-08T03:37:36.618Z,100320.78
2022-12-08T03:44:04.396Z,100312.84
2022-12-08T03:47:09.220Z,100304.09
2022-12-08T03:50:13.870Z,100310.34
2022-12-08T03:53:16.582Z,100303.63
2022-12-08T03:56:26.405Z,100293.69
2022-12-08T03:59:30.369Z,100301.13
2022-12-08T04:02:33.356Z,100303.22
2022-12-08T04:05:37.303Z,100287.22
2022-12-08T04:08:40.347Z,100290.34
2022-12-08T04:11:45.881Z,100295.16
2022-12-08T04:14:48.596Z,100289.75
2022-12-08T04:17:52.558Z,100280.97
2022-12-08T04:20:55.421Z,100283.72
2022-12-08T04:24:01.501Z,100286.66
2022-12-08T04:27:07.106Z,100290.56
2022-12-08T04:30:10.734Z,100281.66
2022-12-08T04:33:14.690Z,100279.13
2022-12-08T04:36:17.415Z,100278.75
2022-12-08T04:39:21.354Z,100273.94
2022-12-08T04:42:26.730Z,100276.03
2022-12-08T04:45:29.482Z,100269.97
2022-12-08T04:48:33.437Z,100264.78
2022-12-08T04:51:36.158Z,100264.56
2022-12-08T04:54:40.123Z,100265.81
2022-12-08T04:57:45.536Z,100266.25
2022-12-08T05:00:49.260Z,100254.59
2022-12-08T05:03:53.306Z,100260.84
2022-12-08T05:06:56.053Z,100263.56
2022-12-08T05:10:00.086Z,100259.59
2022-12-08T05:13:04.170Z,100250.16
2022-12-08T05:16:10.209Z,100256.00
2022-12-08T05:19:13.511Z,100249.50
2022-12-08T05:22:17.480Z,100242.75
2022-12-08T05:25:20.214Z,100250.22
2022-12-08T05:28:41.300Z,100248.94
2022-12-08T05:35:06.502Z,100241.16
2022-12-08T05:41:32.569Z,100232.81
2022-12-08T05:44:36.596Z,100236.59
2022-12-08T05:47:40.586Z,100237.63
2022-12-08T05:50:47.309Z,100242.47
2022-12-08T05:53:52.643Z,100240.56
2022-12-08T05:56:55.410Z,100228.06
2022-12-08T06:00:00.937Z,100227.84
2022-12-08T06:03:03.808Z,100232.22
2022-12-08T06:06:08.216Z,100225.75
2022-12-08T06:09:13.564Z,100223.25
2022-12-08T06:12:16.354Z,100228.06
2022-12-08T06:15:21.984Z,100226.56
2022-12-08T06:18:29.661Z,100228.97
2022-12-08T06:24:58.213Z,100229.81
2022-12-08T06:28:00.966Z,100231.06
2022-12-08T06:31:12.222Z,100235.44
2022-12-08T06:34:14.918Z,100242.09
2022-12-08T06:37:18.890Z,100236.03
2022-12-08T06:40:21.588Z,100229.59
2022-12-08T06:43:25.877Z,100232.97
2022-12-08T06:46:32.211Z,100233.94
2022-12-08T06:49:34.967Z,100231.06
2022-12-08T06:52:47.275Z,100224.78
2022-12-08T06:55:59.965Z,100239.44
2022-12-08T06:59:05.567Z,100236.41
2022-12-08T07:02:11.029Z,100233.34
2022-12-08T07:05:15.024Z,100237.47
2022-12-08T07:08:19.002Z,100249.50
2022-12-08T07:11:22.686Z,100245.16
2022-12-08T07:14:27.082Z,100239.13
2022-12-08T07:17:31.178Z,100244.25
2022-12-08T07:20:35.209Z,100244.66
2022-12-08T07:23:39.485Z,100240.91
2022-12-08T07:26:42.194Z,100237.25
2022-12-08T07:29:46.177Z,100242.13
2022-12-08T07:32:50.267Z,100251.03
2022-12-08T07:35:58.295Z,100246.44
2022-12-08T07:39:01.157Z,100245.28
2022-12-08T07:42:05.301Z,100251.75
2022-12-08T07:45:09.276Z,100240.25
2022-12-08T07:51:36.410Z,100238.75
2022-12-08T07:54:39.123Z,100239.94
2022-12-08T07:57:43.098Z,100237.09
2022-12-08T08:00:45.815Z,100251.69
2022-12-08T08:03:51.218Z,100249.59
2022-12-08T08:06:55.564Z,100261.25
2022-12-08T08:09:58.262Z,100259.97
2022-12-08T08:16:23.275Z,100255.75
2022-12-08T08:19:28.750Z,100246.91
2022-12-08T08:22:31.418Z,100247.25
2022-12-08T08:25:35.339Z,100255.97
2022-12-08T08:28:38.071Z,100246.59
2022-12-08T08:31:42.105Z,100257.44
2022-12-08T08:38:08.043Z,100247.06
2022-12-08T08:41:11.654Z,100250.53
2022-12-08T08:44:16.324Z,100257.22
2022-12-08T08:47:19.095Z,100247.91
2022-12-08T08:50:24.503Z,100255.91
2022-12-08T08:53:27.242Z,100251.56
2022-12-08T08:56:31.354Z,100254.44
2022-12-08T08:59:34.052Z,100246.84
2022-12-08T09:02:38.193Z,100243.38
2022-12-08T09:05:42.341Z,100241.03
2022-12-08T09:08:46.952Z,100242.19
2022-12-08T09:11:49.671Z,100239.72
2022-12-08T09:18:15.217Z,100234.63
2022-12-08T09:24:46.268Z,100224.66
2022-12-08T09:27:48.976Z,100231.94
2022-12-08T09:30:53.986Z,100228.81
2022-12-08T09:33:57.956Z,100227.66
2022-12-08T09:37:02.012Z,100232.63
2022-12-08T09:40:08.292Z,100219.28
2022-12-08T09:43:25.197Z,100215.06
2022-12-08T09:46:32.791Z,100222.13
2022-12-08T09:49:42.058Z,100205.44
2022-12-08T09:52:48.536Z,100211.53
2022-12-08T09:55:54.833Z,100210.06
2022-12-08T09:59:01.380Z,100209.63
2022-12-08T10:02:19.538Z,100203.19
2022-12-08T10:05:25.235Z,100206.47
2022-12-08T10:08:36.437Z,100211.34
2022-12-08T10:11:46.893Z,100218.41
2022-12-08T10:14:58.549Z,100203.19
2022-12-08T10:18:05.213Z,100202.22
2022-12-08T10:21:18.006Z,100202.59
2022-12-08T10:24:27.694Z,100204.06
2022-12-08T10:27:32.011Z,100194.63
2022-12-08T10:30:34.715Z,100195.09
2022-12-08T10:33:38.745Z,100189.72
2022-12-08T10:36:50.111Z,100188.75
2022-12-08T10:40:04.388Z,100183.19
2022-12-08T10:43:13.953Z,100191.59
2022-12-08T10:46:21.043Z,100189.59
2022-12-08T10:49:30.116Z,100181.59
2022-12-08T10:52:32.992Z,100180.47
2022-12-08T10:55:43.841Z,100170.97
2022-12-08T10:58:48.671Z,100179.63
2022-12-08T11:01:54.530Z,100180.22
2022-12-08T11:05:01.629Z,100168.56
2022-12-08T11:08:06.435Z,100174.28
2022-12-08T11:11:11.862Z,100170.22
2022-12-08T11:14:20.688Z,100172.91
2022-12-08T11:17:28.028Z,100172.78
2022-12-08T11:20:41.438Z,100173.91
2022-12-08T11:23:49.778Z,100183.56
2022-12-08T11:26:57.631Z,100173.06
2022-12-08T11:30:01.457Z,100170.81
2022-12-08T11:33:16.725Z,100183.78
2022-12-08T11:36:24.499Z,100174.28
2022-12-08T11:39:30.201Z,100171.84
2022-12-08T11:42:47.800Z,100174.38
2022-12-08T11:45:56.776Z,100171.78
2022-12-08T11:49:06.619Z,100178.97
2022-12-08T11:52:22.938Z,100176.53
2022-12-08T11:55:38.960Z,100178.66
2022-12-08T11:58:47.996Z,100176.75
2022-12-08T12:01:52.305Z,100177.91
2022-12-08T12:04:59.423Z,100179.78
2022-12-08T12:08:18.465Z,100172.41
2022-12-08T12:11:47.997Z,100173.91
2022-12-08T12:15:18.509Z,100168.19
2022-12-08T12:18:29.202Z,100167.59
2022-12-08T12:21:36.760Z,100164.78
2022-12-08T12:24:41.680Z,100167.44
2022-12-08T12:27:45.423Z,100168.63
2022-12-08T12:31:00.176Z,100166.50
2022-12-08T12:34:09.985Z,100169.44
2022-12-08T12:37:15.378Z,100166.66
2022-12-08T12:40:22.586Z,100171.41
2022-12-08T12:43:31.063Z,100171.09
2022-12-08T12:46:59.526Z,100165.38
2022-12-08T12:50:14.341Z,100168.84
2022-12-08T12:53:52.003Z,100168.38
2022-12-08T12:56:57.380Z,100159.56
2022-12-08T13:00:11.701Z,100171.09
2022-12-08T13:03:18.177Z,100156.53
2022-12-08T13:06:26.282Z,100169.91
2022-12-08T13:09:33.947Z,100160.72
2022-12-08T13:12:37.961Z,100160.41
2022-12-08T13:15:49.325Z,100161.44
2022-12-08T13:18:58.699Z,100161.00
2022-12-08T13:22:03.448Z,100165.38
2022-12-08T13:25:39.629Z,100160.00
2022-12-08T13:29:25.058Z,100155.34
2022-12-08T13:33:18.548Z,100160.91
2022-12-08T13:36:28.940Z,100161.59
2022-12-08T13:39:43.577Z,100161.41
2022-12-08T13:42:53.204Z,100161.31
2022-12-08T13:50:57.598Z,100167.56
2022-12-08T13:59:47.183Z,100169.16
2022-12-08T14:02:52.033Z,100182.94
2022-12-08T14:06:12.405Z,100175.50
2022-12-08T14:09:19.829Z,100182.03
2022-12-08T14:12:27.135Z,100177.06
2022-12-08T14:15:37.277Z,100179.69
2022-12-08T14:18:41.168Z,100171.19
2022-12-08T14:21:49.426Z,100176.94
2022-12-08T14:24:55.307Z,100189.53
2022-12-08T14:28:02.767Z,100188.28
2022-12-08T14:31:07.360Z,100184.75
2022-12-08T14:34:11.967Z,100187.47
2022-12-08T14:40:41.043Z,100191.19
2022-12-08T14:43:45.025Z,100199.84
2022-12-08T14:47:06.208Z,100198.84
2022-12-08T14:50:46.018Z,100192.75
2022-12-08T14:53:55.783Z,100197.81
2022-12-08T14:57:03.493Z,100218.66
2022-12-08T15:03:34.190Z,100196.94
2022-12-08T15:06:38.938Z,100197.34
2022-12-08T15:09:45.152Z,100197.59
2022-12-08T15:13:21.948Z,100199.06
2022-12-08T15:16:31.595Z,100200.81
2022-12-08T15:19:36.342Z,100203.78
2022-12-08T15:22:40.048Z,100201.53
2022-12-08T15:25:44.039Z,100197.63
2022-12-08T15:28:48.098Z,100199.09
2022-12-08T15:31:53.625Z,100216.88
2022-12-08T15:34:56.419Z,100217.94
2022-12-08T15:41:22.123Z,100230.06
2022-12-08T15:44:26.452Z,100233.41
2022-12-08T15:47:31.128Z,100220.91
2022-12-08T15:50:35.170Z,100218.19
2022-12-08T15:53:37.858Z,100226.78
2022-12-08T15:57:17.404Z,100226.63
2022-12-08T16:00:55.952Z,100224.38
2022-12-08T16:07:22.536Z,100224.66
2022-12-08T16:10:45.450Z,100237.44
2022-12-08T16:14:19.862Z,100243.31
2022-12-08T16:17:19.077Z,100237.47
2022-12-08T16:20:32.690Z,100247.56
2022-12-08T16:23:46.730Z,100242.34
2022-12-08T16:30:16.653Z,100250.94
2022-12-08T16:33:22.338Z,100248.47
2022-12-08T16:36:26.288Z,100240.34
2022-12-08T16:39:29.061Z,100245.16
2022-12-08T16:42:45.639Z,100250.63
2022-12-08T16:45:48.375Z,100248.16
2022-12-08T16:48:53.735Z,100254.03
2022-12-08T16:51:57.685Z,100250.28
2022-12-08T16:55:00.419Z,100256.13
2022-12-08T16:58:04.977Z,100247.41
2022-12-08T17:01:11.813Z,100252.44
2022-12-08T17:04:32.677Z,100253.47
2022-12-08T17:11:08.502Z,100248.06
2022-12-08T17:14:12.552Z,100260.38
2022-12-08T17:17:15.402Z,100260.16
2022-12-08T17:20:22.972Z,100255.56
2022-12-08T17:23:25.669Z,100263.53
2022-12-08T17:26:29.678Z,100267.28
2022-12-08T17:29:34.336Z,100269.53
2022-12-08T17:32:38.475Z,100279.31
2022-12-08T17:35:49.602Z,100271.47
2022-12-08T17:38:52.299Z,100269.38
2022-12-08T17:41:56.272Z,100278.13
2022-12-08T17:44:59.034Z,100280.41
2022-12-08T17:48:03.001Z,100278.34
2022-12-08T17:54:32.592Z,100277.72
2022-12-08T18:00:56.718Z,100277.13
2022-12-08T18:04:00.696Z,100279.38
2022-12-08T18:07:06.123Z,100279.63
2022-12-08T18:10:09.509Z,100276.09
2022-12-08T18:13:13.626Z,100285.25
2022-12-08T18:16:17.177Z,100282.75
2022-12-08T18:19:21.261Z,100288.16
2022-12-08T18:22:26.700Z,100292.13
2022-12-08T18:25:30.724Z,100293.38
2022-12-08T18:28:34.034Z,100295.84
2022-12-08T18:31:37.981Z,100303.56
2022-12-08T18:34:40.840Z,100301.88
2022-12-08T18:37:46.907Z,100301.88
2022-12-08T18:40:50.874Z,100303.75
2022-12-08T18:43:55.079Z,100301.69
2022-12-08T18:46:59.009Z,100301.06
2022-12-08T18:50:01.873Z,100300.66
2022-12-08T18:53:07.273Z,100302.09
2022-12-08T18:56:10.144Z,100311.06
2022-12-08T18:59:14.832Z,100313.75
2022-12-08T19:02:18.389Z,100317.91
2022-12-08T19:05:22.624Z,100321.66
2022-12-08T19:08:31.200Z,100320.63
2022-12-08T19:11:35.607Z,100325.19
2022-12-08T19:14:38.361Z,100324.75
2022-12-08T19:17:42.343Z,100333.28
2022-12-08T19:20:46.298Z,100338.06
2022-12-08T19:23:51.565Z,100344.53
2022-12-08T19:26:55.753Z,100341.59
2022-12-08T19:29:58.523Z,100342.66
2022-12-08T19:33:02.542Z,100345.13
2022-12-08T19:36:07.122Z,100335.59
2022-12-08T19:43:12.356Z,100343.50
2022-12-08T19:46:16.540Z,100348.28
2022-12-08T19:49:20.530Z,100358.44
2022-12-08T19:52:23.262Z,100355.34
2022-12-08T19:55:28.798Z,100353.88
2022-12-08T19:58:32.765Z,100353.88
2022-12-08T20:01:37.501Z,100357.81
2022-12-08T20:04:41.491Z,100364.88
2022-12-08T20:07:44.547Z,100367.56
2022-12-08T20:10:50.056Z,100364.03
2022-12-08T20:13:52.851Z,100369.44
2022-12-08T20:16:56.816Z,100350.13
2022-12-08T20:20:03.873Z,100357.19
2022-12-08T20:23:10.755Z,100356.75
2022-12-08T20:26:16.226Z,100361.53
2022-12-08T20:29:20.239Z,100355.50
2022-12-08T20:32:24.317Z,100361.94
2022-12-08T20:35:27.054Z,100362.34
2022-12-08T20:38:31.437Z,100368.81
2022-12-08T20:41:39.137Z,100366.94
2022-12-08T20:48:07.656Z,100368.78
2022-12-08T20:51:14.263Z,100381.66
2022-12-08T20:54:18.221Z,100388.25
2022-12-08T20:57:22.736Z,100388.47
2022-12-08T21:00:28.470Z,100389.91
2022-12-08T21:03:32.789Z,100385.97
2022-12-08T21:06:35.854Z,100390.31
2022-12-08T21:09:40.112Z,100396.94
2022-12-08T21:12:44.345Z,100396.31
2022-12-08T21:15:48.640Z,100400.47
2022-12-08T21:18:51.443Z,100414.59
2022-12-08T21:21:55.507Z,100415.41
2022-12-08T21:28:21.238Z,100410.38
2022-12-08T21:31:27.551Z,100420.16
2022-12-08T21:34:31.521Z,100418.09
2022-12-08T21:37:35.785Z,100423.50
2022-12-08T21:40:39.962Z,100416.25
2022-12-08T21:43:44.176Z,100427.66
2022-12-08T21:46:48.357Z,100414.56
2022-12-08T21:49:51.187Z,100414.31
2022-12-08T21:52:55.345Z,100423.88
2022-12-08T21:55:58.185Z,100414.78
2022-12-08T21:59:03.586Z,100424.97
2022-12-08T22:02:08.355Z,100423.31
2022-12-08T22:05:13.442Z,100424.16
2022-12-08T22:11:37.639Z,100424.34
2022-12-08T22:14:43.136Z,100419.56
2022-12-08T22:17:46.055Z,100421.84
2022-12-08T22:20:50.337Z,100418.28
2022-12-08T22:23:53.166Z,100412.88
2022-12-08T22:26:57.180Z,100419.09
2022-12-08T22:30:02.772Z,100407.88
2022-12-08T22:33:05.775Z,100420.06
2022-12-08T22:36:15.442Z,100419.03
2022-12-08T22:39:18.421Z,100417.38
2022-12-08T22:45:44.266Z,100420.72
2022-12-08T22:48:48.551Z,100409.13
2022-12-08T22:51:51.703Z,100411.97
2022-12-08T22:54:55.777Z,100419.22
2022-12-08T22:57:59.923Z,100413.19
2022-12-08T23:01:04.716Z,100421.28
2022-12-08T23:04:12.768Z,100421.66
2022-12-08T23:07:21.263Z,100419.78
2022-12-08T23:10:24.015Z,100418.75
2022-12-08T23:13:28.070Z,100418.94
2022-12-08T23:16:33.244Z,100422.28
2022-12-08T23:19:38.202Z,100416.00
2022-12-08T23:26:03.076Z,100419.50
2022-12-08T23:32:29.342Z,100431.13
2022-12-08T23:35:33.625Z,100424.03
2022-12-08T23:38:37.806Z,100425.69
2022-12-08T23:41:40.907Z,100430.41
2022-12-08T23:44:45.111Z,100427.50
2022-12-08T23:47:49.487Z,100425.59
2022-12-08T23:50:53.518Z,100423.66
2022-12-08T23:53:57.496Z,100426.16
2022-12-08T23:57:00.298Z,100428.63
